Latest Weather Observations for Geelong Racecourse

IDV60901

Issued at 6:31 am EDT Monday 5 December 2022 (issued every 10 minutes, with the page automatically refreshed every 10 minutes)

About weather observations | Map of Melbourne area stations | Latest observations for Melbourne area | Other Formats
Station Details ID: 087184 Name: GEELONG RACECOURSE Lat: -38.17 Lon: 144.38 Height: 12.9 m
Data from the previous 72 hours. | See also: Recent months at Geelong Racecourse
Date/Time
EDT
Temp
°C
App
Temp
°C
Dew
Point
°C
Rel
Hum
%
Delta-T
°C
Wind Press
QNH
hPa
Press
MSL
hPa
Rain since
9am
mm
Dir  Spd
km/h
Gust
km/h
Spd
kts
Gust
kts
05/06:30am 15.5 11.8 12.6 83 1.6 SW 24 35 13 19 1008.7 1008.7 0.0
05/06:00am 16.0 13.1 12.9 82 1.7 SW 20 28 11 15 1008.2 1008.2 0.0
05/05:30am 16.0 14.4 12.9 82 1.7 WSW 13 20 7 11 1007.8 1007.8 0.0
05/05:00am 16.4 14.4 12.8 79 2.0 W 15 24 8 13 1007.3 1007.3 0.0
05/04:30am 16.9 14.2 13.0 78 2.2 W 19 28 10 15 1007.0 1007.0 0.0
05/04:00am 16.9 14.7 13.2 79 2.1 W 17 26 9 14 1006.9 1006.9 0.0
05/03:30am 17.0 14.3 13.5 80 2.0 W 20 30 11 16 1006.5 1006.5 0.0
05/03:00am 17.2 15.0 13.3 78 2.2 W 17 28 9 15 1006.5 1006.5 0.0
05/02:30am 17.2 14.6 13.3 78 2.2 W 19 28 10 15 1006.4 1006.4 0.0
05/02:00am 17.1 14.6 13.4 79 2.1 W 19 30 10 16 1006.6 1006.6 0.0
05/01:30am 17.4 14.6 13.3 77 2.3 W 20 32 11 17 1006.2 1006.2 0.0
05/01:00am 18.0 15.3 12.9 72 2.9 W 19 28 10 15 1006.1 1006.1 0.0
05/12:30am 19.2 16.2 12.5 65 3.7 W 20 28 11 15 1006.5 1006.5 0.0
05/12:00am 21.5 19.4 9.7 47 6.4 NW 11 30 6 16 1006.5 1006.5 0.0
 
Date/Time
EDT
Temp
°C
App
Temp
°C
Dew
Point
°C
Rel
Hum
%
Delta-T
°C
Wind Press
QNH
hPa
Press
MSL
hPa
Rain since
9am
mm
Dir  Spd
km/h
Gust
km/h
Spd
kts
Gust
kts
04/11:30pm 21.1 20.8 14.5 66 3.9 WSW 9 13 5 7 1006.0 1006.0 0.0
04/11:00pm 21.1 20.0 14.3 65 4.0 SSW 13 17 7 9 1005.3 1005.3 0.0
04/10:30pm 22.1 19.3 14.2 61 4.6 SW 22 32 12 17 1005.4 1005.4 0.0
04/10:00pm 23.3 24.6 14.0 56 5.5 CALM 0 0 0 0 1004.4 1004.4 0.0
04/09:30pm 23.0 23.9 14.0 57 5.3 WSW 2 6 1 3 1004.5 1004.5 0.0
04/09:00pm 22.5 22.9 15.4 64 4.3 SW 7 9 4 5 1004.5 1004.5 0.0
04/08:30pm 23.2 24.0 14.7 58 5.0 SSW 4 7 2 4 1004.7 1004.7 0.0
04/08:00pm 25.1 24.8 14.3 51 6.4 SE 9 13 5 7 1005.0 1005.0 0.0
04/07:30pm 25.4 25.0 15.1 53 6.2 S 11 17 6 9 1005.5 1005.5 0.0
04/07:23pm 26.0 24.4 13.8 47 7.2 S 15 20 8 11 1005.5 1005.5 0.0
04/07:00pm 31.0 29.7 11.4 30 11.4 W 9 15 5 8 1005.2 1005.2 0.0
04/06:30pm 31.9 30.2 10.0 26 12.5 NW 9 22 5 12 1004.9 1004.9 0.0
04/06:00pm 32.4 28.8 9.9 25 12.9 NW 19 32 10 17 1005.2 1005.2 0.0
04/05:30pm 33.3 29.2 8.7 22 13.8 WNW 20 33 11 18 1005.6 1005.6 0.0
04/05:00pm 33.7 29.3 7.6 20 14.5 NW 20 32 11 17 1005.9 1005.9 0.0
04/04:30pm 33.7 30.3 9.0 22 14.0 NW 17 32 9 17 1006.3 1006.3 0.0
04/04:00pm 33.6 28.5 7.6 20 14.4 NW 24 39 13 21 1006.7 1006.7 0.0
04/03:30pm 33.7 29.7 9.0 22 14.0 NW 20 32 11 17 1006.9 1006.9 0.0
04/03:00pm 33.3 28.5 8.7 22 13.9 NW 24 39 13 21 1007.4 1007.4 0.0
04/02:30pm 32.9 28.0 7.0 20 14.2 WNW 22 32 12 17 1007.8 1007.8 0.0
04/02:00pm 33.1 27.2 3.9 16 15.2 WNW 24 35 13 19 1008.1 1008.1 0.0
04/01:30pm 33.3 28.7 8.0 21 14.1 NNW 22 39 12 21 1008.3 1008.3 0.0
04/01:00pm 33.2 28.2 6.5 19 14.5 NW 22 35 12 19 1008.5 1008.5 0.0
04/12:30pm 33.0 29.2 9.7 24 13.3 NW 20 35 11 19 1008.7 1008.7 0.0
04/12:00pm 32.4 29.3 11.6 28 12.2 NNW 19 26 10 14 1009.0 1009.0 0.0
04/11:30am 31.7 28.1 10.4 27 12.2 NNW 20 33 11 18 1009.1 1009.1 0.0
04/11:00am 30.7 29.5 13.9 36 10.1 N 13 20 7 11 1009.6 1009.6 0.0
04/10:30am 25.9 27.3 17.8 61 5.1 NE 7 13 4 7 1010.0 1010.0 0.0
04/10:00am 24.0 24.2 16.8 64 4.4 NE 11 13 6 7 1010.3 1010.3 0.0
04/09:30am 23.0 23.7 17.0 69 3.7 NE 9 13 5 7 1010.9 1010.9 0.0
04/09:00am 21.9 22.4 16.6 72 3.2 NE 9 13 5 7 1011.1 1011.1 0.0
04/08:30am 21.6 22.7 16.6 73 3.0 ENE 6 9 3 5 1011.4 1011.4 0.0
04/08:00am 18.6 20.5 15.8 84 1.7 CALM 0 4 0 2 1011.4 1011.4 0.0
04/07:30am 17.3 19.0 15.3 88 1.2 CALM 0 0 0 0 1011.1 1011.1 0.0
04/07:00am 15.1 16.5 14.3 95 0.5 CALM 0 4 0 2 1011.2 1011.2 0.0
04/06:30am 13.6 14.5 12.8 95 0.4 CALM 0 0 0 0 1011.2 1011.2 0.0
04/06:00am 13.4 14.2 12.6 95 0.4 CALM 0 0 0 0 1011.2 1011.2 0.0
04/05:30am 13.6 13.7 12.8 95 0.4 S 4 9 2 5 1011.2 1011.2 0.0
04/05:00am 13.9 14.8 13.0 94 0.5 CALM 0 0 0 0 1011.1 1011.1 0.0
04/04:30am 14.2 15.2 13.2 94 0.6 CALM 0 0 0 0 1011.2 1011.2 0.0
04/04:00am 14.6 15.7 13.5 93 0.6 CALM 0 0 0 0 1011.4 1011.4 0.0
04/03:30am 14.2 15.1 12.8 91 0.8 CALM 0 0 0 0 1011.7 1011.7 0.0
04/03:00am 14.7 15.8 13.6 93 0.6 CALM 0 0 0 0 1012.0 1012.0 0.0
04/02:30am 14.7 15.8 13.4 92 0.7 CALM 0 0 0 0 1012.4 1012.4 0.0
04/02:00am 14.9 15.9 13.3 90 0.9 CALM 0 0 0 0 1012.6 1012.6 0.0
04/01:30am 15.0 15.3 13.5 91 0.8 S 4 6 2 3 1013.2 1013.2 0.0
04/01:00am 15.5 16.0 14.0 91 0.8 S 4 6 2 3 1013.4 1013.4 0.0
04/12:30am 15.3 15.7 13.7 90 0.9 S 4 4 2 2 1013.7 1013.7 0.0
04/12:00am 15.8 16.4 14.2 90 0.9 S 4 4 2 2 1013.7 1013.7 0.0
 
Date/Time
EDT
Temp
°C
App
Temp
°C
Dew
Point
°C
Rel
Hum
%
Delta-T
°C
Wind Press
QNH
hPa
Press
MSL
hPa
Rain since
9am
mm
Dir  Spd
km/h
Gust
km/h
Spd
kts
Gust
kts
03/11:30pm 15.6 16.5 14.1 91 0.8 S 2 4 1 2 1013.8 1013.8 0.0
03/11:00pm 15.6 15.7 14.0 90 0.9 S 6 6 3 3 1014.1 1014.1 0.0
03/10:30pm 16.7 18.3 14.9 89 1.0 CALM 0 0 0 0 1013.9 1013.9 0.0
03/10:00pm 16.6 17.4 14.8 89 1.0 S 4 4 2 2 1014.0 1014.0 0.0
03/09:30pm 16.9 17.1 14.7 87 1.3 S 7 9 4 5 1013.8 1013.8 0.0
03/09:00pm 17.4 17.3 15.0 86 1.4 S 9 13 5 7 1013.7 1013.7 0.0
03/08:30pm 18.1 17.4 15.4 84 1.6 S 13 17 7 9 1013.5 1013.5 0.0
03/08:00pm 19.3 19.1 15.6 79 2.2 S 11 13 6 7 1013.4 1013.4 0.0
03/07:30pm 20.1 19.0 15.3 74 2.8 S 15 19 8 10 1013.3 1013.3 0.0
03/07:00pm 20.7 19.6 15.3 71 3.2 SSE 15 20 8 11 1013.2 1013.2 0.0
03/06:30pm 21.3 19.8 15.4 69 3.5 SSE 17 22 9 12 1013.2 1013.2 0.0
03/06:00pm 21.5 19.6 15.3 68 3.7 SSE 19 24 10 13 1013.0 1013.0 0.0
03/05:30pm 21.7 20.0 15.8 69 3.5 S 19 24 10 13 1013.1 1013.1 0.0
03/05:00pm 21.7 20.1 16.0 70 3.4 S 19 26 10 14 1013.2 1013.2 0.0
03/04:30pm 22.1 20.5 16.6 71 3.3 SSE 20 28 11 15 1013.3 1013.3 0.0
03/04:00pm 21.9 19.9 16.4 71 3.3 SSE 22 30 12 16 1013.5 1013.5 0.0
03/03:30pm 22.7 20.6 17.2 71 3.4 SSE 24 32 13 17 1013.5 1013.5 0.0
03/03:00pm 23.5 21.2 17.7 70 3.6 S 26 35 14 19 1013.6 1013.6 0.0
03/02:57pm 24.0 21.9 18.0 69 3.8 S 26 35 14 19 1013.5 1013.5 0.0
03/02:30pm 29.0 28.1 14.8 42 8.6 WSW 13 24 7 13 1013.3 1013.3 0.0
03/02:00pm 28.7 26.8 13.0 38 9.3 SW 15 22 8 12 1013.5 1013.5 0.0
03/01:30pm 28.6 27.4 12.9 38 9.2 W 11 20 6 11 1013.7 1013.7 0.0
03/01:00pm 28.6 30.2 16.8 48 7.4 N 4 9 2 5 1014.0 1014.0 0.0
03/12:30pm 27.4 29.1 16.1 50 7.0 N 2 7 1 4 1014.3 1014.3 0.0
03/12:00pm 26.6 28.0 16.5 54 6.2 N 4 6 2 3 1014.6 1014.6 0.0
03/11:30am 24.6 25.9 16.1 59 5.2 SE 4 6 2 3 1015.0 1015.0 0.0
03/11:00am 23.6 24.7 15.6 61 4.8 NNE 4 6 2 3 1015.3 1015.3 0.0
03/10:30am 22.5 23.8 16.1 67 3.9 NE 4 7 2 4 1015.4 1015.4 0.0
03/10:00am 20.3 20.9 15.3 73 3.0 NNE 6 9 3 5 1015.4 1015.4 0.0
03/09:30am 19.8 20.2 15.2 75 2.7 NE 7 9 4 5 1015.5 1015.5 0.0
03/09:00am 18.1 17.7 14.0 77 2.3 NNE 9 11 5 6 1015.6 1015.6 0.0
03/08:30am 16.8 16.5 14.4 86 1.4 NNE 9 13 5 7 1015.5 1015.5 0.0
03/08:00am 16.0 16.1 14.4 90 0.9 NNE 7 11 4 6 1015.3 1015.3 0.0
03/07:30am 14.6 14.6 13.5 93 0.6 WSW 6 6 3 3 1015.2 1015.2 0.0
03/07:00am 12.5 13.1 12.0 97 0.3 CALM 0 0 0 0 1015.0 1015.0 0.0
03/06:30am 11.1 11.3 10.6 97 0.3 CALM 0 0 0 0 1015.0 1015.0 0.0
03/06:00am 10.8 10.9 10.2 96 0.3 CALM 0 0 0 0 1014.8 1014.8 0.0
03/05:30am 10.8 10.9 10.2 96 0.3 CALM 0 0 0 0 1014.7 1014.7 0.0
03/05:00am 11.2 11.4 10.6 96 0.3 CALM 0 0 0 0 1014.6 1014.6 0.0
03/04:30am 11.7 12.1 11.1 96 0.3 CALM 0 0 0 0 1014.5 1014.5 0.0
03/04:00am 11.7 11.7 11.1 96 0.3 WSW 2 2 1 1 1014.6 1014.6 0.0
03/03:30am 11.6 10.7 10.8 95 0.4 WSW 6 7 3 4 1014.8 1014.8 0.0
03/03:00am 12.1 12.5 11.3 95 0.4 CALM 0 0 0 0 1015.1 1015.1 0.0
03/02:30am 12.5 13.0 11.7 95 0.4 CALM 0 0 0 0 1015.3 1015.3 0.0
03/02:00am 12.4 12.5 11.5 94 0.5 WSW 2 2 1 1 1015.4 1015.4 0.0
03/01:30am 12.6 12.4 11.7 94 0.5 WSW 4 4 2 2 1015.7 1015.7 0.0
03/01:00am 12.6 12.3 11.5 93 0.6 WSW 4 6 2 3 1016.0 1016.0 0.0
03/12:30am 13.0 13.7 12.1 94 0.5 CALM 0 2 0 1 1016.2 1016.2 0.0
03/12:00am 13.0 12.8 11.9 93 0.6 WSW 4 6 2 3 1016.4 1016.4 0.0
 
Date/Time
EDT
Temp
°C
App
Temp
°C
Dew
Point
°C
Rel
Hum
%
Delta-T
°C
Wind Press
QNH
hPa
Press
MSL
hPa
Rain since
9am
mm
Dir  Spd
km/h
Gust
km/h
Spd
kts
Gust
kts
02/11:30pm 13.2 12.7 12.1 93 0.6 SW 6 6 3 3 1016.4 1016.4 0.0
02/11:00pm 13.5 13.0 12.2 92 0.7 SW 6 7 3 4 1016.4 1016.4 0.0
02/10:30pm 13.9 13.5 12.5 91 0.8 SSW 6 7 3 4 1016.5 1016.5 0.0
02/10:00pm 14.1 13.8 12.7 91 0.8 SSW 6 7 3 4 1016.4 1016.4 0.0
02/09:30pm 14.5 14.0 12.7 89 1.0 SSW 7 9 4 5 1016.3 1016.3 0.0
02/09:00pm 15.0 14.2 12.9 87 1.2 SSW 9 13 5 7 1016.2 1016.2 0.0
02/08:30pm 15.5 14.4 13.2 86 1.3 S 11 17 6 9 1016.1 1016.1 0.0
02/08:00pm 16.4 14.5 13.1 81 1.8 S 15 19 8 10 1016.1 1016.1 0.0
02/07:30pm 17.2 15.4 13.3 78 2.2 S 15 19 8 10 1016.1 1016.1 0.0
02/07:00pm 17.5 15.3 13.2 76 2.4 S 17 22 9 12 1015.8 1015.8 0.0
02/06:30pm 17.9 15.2 13.0 73 2.7 SSE 19 24 10 13 1015.6 1015.6 0.0
02/06:00pm 18.2 15.8 12.6 70 3.1 SSE 17 28 9 15 1015.6 1015.6 0.0
02/05:30pm 17.9 14.8 12.1 69 3.2 SSE 20 26 11 14 1015.8 1015.8 0.0
02/05:00pm 18.0 15.2 12.7 71 3.0 SSE 19 28 10 15 1015.9 1015.9 0.0
02/04:30pm 18.1 15.3 12.5 70 3.1 SSE 19 30 10 16 1016.0 1016.0 0.0
02/04:00pm 18.2 15.2 12.6 70 3.1 S 20 28 11 15 1016.0 1016.0 0.0
02/03:30pm 18.6 15.9 13.0 70 3.2 S 19 26 10 14 1016.1 1016.1 0.0
02/03:00pm 18.7 16.4 12.9 69 3.3 S 17 24 9 13 1016.2 1016.2 0.0
02/02:30pm 18.6 16.4 13.2 71 3.1 S 17 28 9 15 1016.5 1016.5 0.0
02/02:00pm 19.0 17.0 12.7 67 3.5 S 15 28 8 15 1016.7 1016.7 0.0
02/01:30pm 18.8 16.5 13.0 69 3.3 SSE 17 24 9 13 1017.0 1017.0 0.0
02/01:00pm 18.5 15.5 12.7 69 3.2 S 20 32 11 17 1017.3 1017.3 0.0
02/12:30pm 18.4 16.6 12.2 67 3.4 SSE 13 20 7 11 1017.4 1017.4 0.0
02/12:00pm 18.0 16.3 12.5 70 3.1 N 13 19 7 10 1017.5 1017.5 0.0
02/11:30am 17.9 16.8 11.9 68 3.3 NNE 9 15 5 8 1017.6 1017.6 0.0
02/11:00am 18.0 17.4 11.8 67 3.4 E 6 13 3 7 1017.8 1017.8 0.0
02/10:30am 17.4 16.4 11.0 66 3.4 S 7 13 4 7 1018.1 1018.1 0.0
02/10:00am 16.9 15.9 11.0 68 3.2 SE 7 15 4 8 1018.4 1018.4 0.0
02/09:30am 16.4 14.9 10.5 68 3.1 SE 9 13 5 7 1018.7 1018.7 0.0
02/09:00am 15.1 13.7 9.5 69 2.9 SE 7 15 4 8 1018.6 1018.6 0.2
02/08:30am 15.5 14.2 10.1 70 2.8 ESE 7 11 4 6 1018.5 1018.5 0.2
02/08:00am 14.6 13.2 9.4 71 2.7 SE 7 11 4 6 1018.1 1018.1 0.2
02/07:30am 12.6 12.6 9.8 83 1.4 CALM 0 0 0 0 1018.0 1018.0 0.2
02/07:00am 10.0 9.8 8.9 93 0.5 CALM 0 0 0 0 1017.9 1017.9 0.2

Latest Capital City Observations: Canberra | Sydney | Melbourne | Brisbane | Adelaide | Perth | Hobart | Darwin

Other formats

Comma delimited format used in spreadsheet applications
http://www.bom.gov.au/fwo/IDV60901/IDV60901.94857.axf

JavaScript Object Notation format (JSON) in row-major order
http://www.bom.gov.au/fwo/IDV60901/IDV60901.94857.json

Data quality

Most of these data are generated automatically and are frequently updated. Quality checks on data are not normally performed. It is possible for incorrect values to appear. Refer to information at About Latest Weather Observations and please check the disclaimer before using these data.